createdAt,value
2018-06-05T00:02:19.791Z,24.03
2018-06-05T00:04:47.905Z,24.13
2018-06-05T00:07:16.337Z,24.03
2018-06-05T00:09:49.370Z,24.00
2018-06-05T00:12:18.601Z,23.98
2018-06-05T00:14:46.686Z,23.94
2018-06-05T00:17:14.789Z,24.04
2018-06-05T00:19:43.609Z,23.97
2018-06-05T00:22:11.725Z,23.90
2018-06-05T00:24:39.976Z,23.89
2018-06-05T00:27:09.074Z,23.86
2018-06-05T00:29:37.781Z,23.73
2018-06-05T00:32:06.521Z,23.74
2018-06-05T00:34:34.709Z,23.69
2018-06-05T00:37:03.587Z,23.64
2018-06-05T00:39:31.815Z,23.46
2018-06-05T00:41:59.952Z,23.29
2018-06-05T00:44:32.829Z,23.24
2018-06-05T00:47:00.913Z,23.14
2018-06-05T00:49:30.271Z,22.82
2018-06-05T00:52:09.929Z,22.67
2018-06-05T00:54:37.991Z,22.62
2018-06-05T00:57:06.186Z,22.63
2018-06-05T00:59:34.421Z,22.51
2018-06-05T01:02:02.582Z,22.35
2018-06-05T01:04:32.183Z,22.15
2018-06-05T01:07:00.320Z,22.27
2018-06-05T01:09:29.481Z,22.00
2018-06-05T01:11:57.661Z,21.84
2018-06-05T01:14:25.840Z,21.81
2018-06-05T01:16:54.008Z,21.77
2018-06-05T01:19:22.156Z,21.94
2018-06-05T01:21:50.356Z,21.94
2018-06-05T01:24:18.427Z,21.77
2018-06-05T01:26:46.530Z,21.57
2018-06-05T01:29:14.628Z,21.33
2018-06-05T01:31:42.739Z,21.18
2018-06-05T01:34:11.392Z,21.39
2018-06-05T01:36:39.644Z,21.10
2018-06-05T01:39:09.559Z,20.93
2018-06-05T01:41:38.150Z,20.83
2018-06-05T01:44:06.245Z,20.73
2018-06-05T01:46:34.389Z,20.56
2018-06-05T01:49:02.558Z,20.73
2018-06-05T01:51:30.730Z,20.60
2018-06-05T01:53:58.857Z,20.33
2018-06-05T01:56:27.050Z,20.27
2018-06-05T01:58:55.163Z,20.31
2018-06-05T02:01:23.225Z,20.12
2018-06-05T02:03:51.379Z,20.08
2018-06-05T02:06:19.513Z,20.03
2018-06-05T02:08:47.682Z,19.86
2018-06-05T02:11:16.180Z,19.79
2018-06-05T02:13:44.311Z,19.73
2018-06-05T02:16:12.557Z,19.67
2018-06-05T02:18:40.760Z,19.92
2018-06-05T02:21:08.870Z,19.70
2018-06-05T02:23:37.063Z,19.93
2018-06-05T02:26:05.202Z,19.65
2018-06-05T02:28:33.380Z,19.52
2018-06-05T02:31:01.491Z,19.47
2018-06-05T02:33:29.765Z,19.47
2018-06-05T02:35:58.018Z,19.45
2018-06-05T02:38:26.069Z,19.36
2018-06-05T02:40:54.346Z,19.29
2018-06-05T02:43:22.632Z,19.25
2018-06-05T02:45:51.029Z,19.30
2018-06-05T02:48:19.516Z,19.35
2018-06-05T02:50:47.654Z,19.45
2018-06-05T02:53:15.812Z,19.31
2018-06-05T02:55:43.925Z,19.42
2018-06-05T02:58:12.108Z,19.27
2018-06-05T03:00:40.491Z,19.05
2018-06-05T03:03:08.674Z,19.16
2018-06-05T03:05:37.005Z,19.17
2018-06-05T03:08:05.280Z,19.24
2018-06-05T03:10:33.600Z,19.31
2018-06-05T03:13:01.771Z,19.17
2018-06-05T03:15:30.931Z,19.10
2018-06-05T03:17:59.159Z,19.01
2018-06-05T03:20:27.377Z,18.98
2018-06-05T03:22:55.679Z,18.86
2018-06-05T03:25:23.979Z,18.47
2018-06-05T03:27:52.093Z,19.25
2018-06-05T03:30:20.464Z,19.06
2018-06-05T03:32:48.659Z,19.12
2018-06-05T03:35:16.837Z,19.33
2018-06-05T03:37:44.993Z,19.12
2018-06-05T03:40:13.069Z,19.07
2018-06-05T03:42:41.265Z,19.19
2018-06-05T03:45:09.442Z,19.05
2018-06-05T03:47:37.679Z,18.90
2018-06-05T03:50:05.806Z,18.82
2018-06-05T03:52:33.873Z,19.01
2018-06-05T03:55:03.131Z,18.97
2018-06-05T03:57:31.331Z,18.99
2018-06-05T03:59:59.531Z,18.83
2018-06-05T04:02:27.646Z,19.16
2018-06-05T04:04:55.685Z,19.29
2018-06-05T04:07:26.209Z,19.16
2018-06-05T04:09:55.093Z,19.04
2018-06-05T04:12:23.251Z,19.03
2018-06-05T04:14:51.468Z,19.10
2018-06-05T04:17:19.630Z,19.24
2018-06-05T04:19:47.887Z,19.15
2018-06-05T04:22:16.134Z,19.32
2018-06-05T04:24:45.201Z,19.45
2018-06-05T04:27:13.418Z,19.40
2018-06-05T04:29:41.736Z,19.50
2018-06-05T04:32:10.048Z,19.37
2018-06-05T04:34:38.265Z,19.49
2018-06-05T04:37:06.533Z,19.39
2018-06-05T04:39:34.886Z,19.45
2018-06-05T04:42:03.100Z,19.44
2018-06-05T04:44:31.337Z,19.43
2018-06-05T04:46:59.508Z,19.59
2018-06-05T04:49:28.269Z,19.53
2018-06-05T04:51:56.485Z,19.81
2018-06-05T04:54:24.685Z,19.74
2018-06-05T04:56:52.873Z,19.96
2018-06-05T04:59:21.279Z,19.75
2018-06-05T05:01:49.714Z,19.94
2018-06-05T05:04:17.965Z,19.89
2018-06-05T05:06:46.292Z,19.89
2018-06-05T05:09:14.551Z,19.97
2018-06-05T05:11:42.976Z,19.86
2018-06-05T05:14:11.402Z,20.38
2018-06-05T05:16:39.474Z,20.46
2018-06-05T05:19:07.694Z,20.52
2018-06-05T05:21:36.150Z,20.48
2018-06-05T05:24:04.765Z,20.67
2018-06-05T05:26:33.559Z,20.85
2018-06-05T05:29:01.805Z,20.82
2018-06-05T05:31:30.056Z,20.79
2018-06-05T05:33:58.273Z,20.82
2018-06-05T05:36:26.654Z,20.90
2018-06-05T05:38:57.014Z,21.12
2018-06-05T05:41:25.230Z,21.09
2018-06-05T05:43:53.874Z,20.98
2018-06-05T05:46:22.199Z,20.77
2018-06-05T05:48:50.656Z,21.56
2018-06-05T05:51:18.952Z,22.70
2018-06-05T05:53:47.715Z,22.60
2018-06-05T05:56:16.190Z,22.47
2018-06-05T05:58:44.417Z,22.03
2018-06-05T06:01:12.690Z,21.58
2018-06-05T06:03:40.837Z,21.72
2018-06-05T06:06:09.943Z,21.08
2018-06-05T06:08:38.859Z,21.07
2018-06-05T06:11:07.170Z,21.28
2018-06-05T06:13:35.868Z,20.96
2018-06-05T06:16:04.226Z,21.41
2018-06-05T06:18:32.517Z,22.23
2018-06-05T06:21:00.685Z,23.13
2018-06-05T06:23:28.903Z,24.07
2018-06-05T06:25:57.188Z,25.38
2018-06-05T06:28:25.555Z,26.22
2018-06-05T06:30:53.698Z,24.84
2018-06-05T06:33:21.879Z,24.70
2018-06-05T06:35:50.231Z,24.93
2018-06-05T06:38:18.312Z,28.45
2018-06-05T06:40:46.499Z,27.12
2018-06-05T06:43:14.634Z,27.54
2018-06-05T06:45:42.759Z,28.02
2018-06-05T06:48:11.338Z,27.85
2018-06-05T06:50:40.218Z,28.99
2018-06-05T06:53:08.469Z,27.80
2018-06-05T06:55:40.861Z,26.97
2018-06-05T06:58:09.057Z,29.10
2018-06-05T07:00:37.206Z,28.47
2018-06-05T07:03:05.443Z,28.48
2018-06-05T07:05:33.667Z,29.93
2018-06-05T07:08:01.992Z,27.86
2018-06-05T07:10:30.169Z,27.79
2018-06-05T07:12:58.373Z,27.98
2018-06-05T07:15:26.464Z,26.95
2018-06-05T07:17:54.629Z,27.42
2018-06-05T07:20:22.888Z,27.48
2018-06-05T07:22:51.130Z,27.09
2018-06-05T07:25:19.352Z,26.83
2018-06-05T07:27:47.641Z,25.84
2018-06-05T07:30:15.860Z,25.62
2018-06-05T07:32:44.050Z,25.44
2018-06-05T07:35:12.267Z,25.19
2018-06-05T07:37:40.523Z,25.39
2018-06-05T07:40:08.925Z,25.17
2018-06-05T07:42:37.232Z,24.85
2018-06-05T07:45:05.509Z,24.69
2018-06-05T07:47:33.707Z,24.57
2018-06-05T07:50:01.995Z,24.55
2018-06-05T07:52:30.970Z,24.49
2018-06-05T07:54:59.166Z,24.91
2018-06-05T07:57:27.408Z,25.25
2018-06-05T07:59:55.607Z,25.30
2018-06-05T08:02:23.869Z,24.97
2018-06-05T08:04:52.079Z,24.94
2018-06-05T08:07:20.228Z,24.99
2018-06-05T08:09:48.614Z,25.04
2018-06-05T08:12:16.828Z,25.12
2018-06-05T08:14:45.466Z,25.52
2018-06-05T08:17:13.654Z,25.74
2018-06-05T08:19:42.068Z,25.62
2018-06-05T08:22:11.325Z,25.57
2018-06-05T08:24:39.486Z,25.83
2018-06-05T08:27:07.661Z,25.73
2018-06-05T08:29:36.355Z,25.71
2018-06-05T08:32:09.338Z,25.93
2018-06-05T08:34:37.519Z,26.07
2018-06-05T08:37:05.751Z,26.34
2018-06-05T08:39:33.927Z,26.66
2018-06-05T08:42:02.367Z,27.01
2018-06-05T08:44:30.781Z,26.94
2018-06-05T08:46:58.974Z,27.11
2018-06-05T08:49:27.214Z,26.76
2018-06-05T08:51:55.389Z,26.78
2018-06-05T08:54:23.599Z,27.20
2018-06-05T08:56:51.688Z,27.03
2018-06-05T08:59:19.913Z,26.81
2018-06-05T09:01:48.323Z,26.72
2018-06-05T09:04:16.474Z,26.64
2018-06-05T09:06:44.782Z,26.45
2018-06-05T09:09:13.668Z,26.55
2018-06-05T09:11:42.162Z,26.89
2018-06-05T09:14:10.587Z,27.10
2018-06-05T09:16:38.830Z,27.34
2018-06-05T09:19:07.012Z,27.44
2018-06-05T09:21:35.184Z,27.72
2018-06-05T09:24:03.431Z,27.78
2018-06-05T09:26:31.609Z,27.72
2018-06-05T09:28:59.837Z,27.85
2018-06-05T09:31:28.014Z,28.21
2018-06-05T09:33:56.220Z,28.25
2018-06-05T09:36:24.371Z,28.26
2018-06-05T09:38:52.974Z,28.42
2018-06-05T09:41:21.112Z,28.38
2018-06-05T09:43:49.375Z,28.73
2018-06-05T09:46:18.327Z,28.85
2018-06-05T09:48:46.645Z,28.97
2018-06-05T09:51:14.847Z,29.22
2018-06-05T09:53:43.041Z,29.36
2018-06-05T09:56:11.248Z,29.43
2018-06-05T09:58:39.625Z,29.47
2018-06-05T10:01:07.754Z,30.16
2018-06-05T10:03:36.003Z,29.86
2018-06-05T10:06:04.315Z,29.78
2018-06-05T10:08:32.772Z,29.88
2018-06-05T10:11:01.074Z,29.21
2018-06-05T10:13:29.781Z,29.28
2018-06-05T10:15:57.957Z,28.62
2018-06-05T10:18:26.159Z,28.85
2018-06-05T10:20:54.876Z,28.72
2018-06-05T10:23:23.073Z,28.83
2018-06-05T10:25:51.714Z,29.45
2018-06-05T10:28:19.957Z,29.52
2018-06-05T10:30:48.271Z,29.14
2018-06-05T10:33:16.479Z,29.09
2018-06-05T10:35:44.769Z,29.64
2018-06-05T10:38:12.917Z,30.03
2018-06-05T10:40:41.167Z,29.57
2018-06-05T10:43:09.342Z,30.02
2018-06-05T10:45:37.465Z,30.03
2018-06-05T10:48:05.741Z,30.37
2018-06-05T10:50:38.051Z,30.18
2018-06-05T10:53:07.664Z,29.55
2018-06-05T10:55:36.590Z,29.39
2018-06-05T10:58:04.853Z,29.51
2018-06-05T11:00:33.073Z,29.18
2018-06-05T11:03:01.744Z,29.20
2018-06-05T11:05:30.144Z,29.59
2018-06-05T11:07:58.511Z,30.00
2018-06-05T11:10:26.861Z,30.19
2018-06-05T11:12:55.215Z,29.93
2018-06-05T11:15:23.394Z,30.50
2018-06-05T11:17:51.573Z,30.90
2018-06-05T11:20:19.927Z,30.92
2018-06-05T11:22:48.074Z,30.51
2018-06-05T11:25:16.465Z,30.44
2018-06-05T11:27:45.222Z,29.97
2018-06-05T11:30:13.466Z,29.99
2018-06-05T11:32:41.728Z,29.91
2018-06-05T11:35:09.953Z,30.23
2018-06-05T11:37:38.090Z,30.29
2018-06-05T11:40:06.362Z,30.92
2018-06-05T11:42:34.560Z,30.65
2018-06-05T11:45:02.987Z,30.52
2018-06-05T11:47:31.190Z,30.19
2018-06-05T11:50:00.050Z,30.01
2018-06-05T11:52:28.569Z,30.06
2018-06-05T11:54:56.754Z,30.69
2018-06-05T11:57:24.977Z,30.95
2018-06-05T11:59:53.302Z,30.75
2018-06-05T12:02:21.457Z,30.53
2018-06-05T12:04:49.629Z,30.88
2018-06-05T12:07:17.819Z,31.09
2018-06-05T12:09:46.039Z,31.43
2018-06-05T12:12:14.276Z,30.81
2018-06-05T12:14:42.498Z,30.79
2018-06-05T12:17:10.728Z,30.69
2018-06-05T12:19:38.880Z,29.92
2018-06-05T12:22:07.674Z,29.59
2018-06-05T12:24:35.912Z,29.57
2018-06-05T12:27:04.394Z,29.31
2018-06-05T12:29:37.110Z,29.30
2018-06-05T12:32:06.923Z,29.26
2018-06-05T12:34:35.298Z,29.13
2018-06-05T12:37:03.479Z,28.91
2018-06-05T12:39:31.649Z,28.96
2018-06-05T12:41:59.940Z,28.78
2018-06-05T12:44:28.311Z,28.83
2018-06-05T12:46:56.418Z,28.86
2018-06-05T12:49:24.587Z,28.70
2018-06-05T12:51:52.715Z,28.72
2018-06-05T12:54:21.245Z,28.75
2018-06-05T12:56:49.716Z,28.82
2018-06-05T12:59:17.928Z,29.19
2018-06-05T13:01:46.076Z,29.36
2018-06-05T13:04:14.754Z,29.15
2018-06-05T13:06:42.922Z,29.00
2018-06-05T13:09:11.876Z,29.17
2018-06-05T13:11:40.388Z,29.45
2018-06-05T13:14:09.156Z,29.84
2018-06-05T13:16:37.505Z,29.84
2018-06-05T13:19:05.625Z,30.09
2018-06-05T13:21:33.837Z,30.66
2018-06-05T13:24:02.075Z,30.74
2018-06-05T13:26:30.258Z,30.58
2018-06-05T13:28:58.525Z,31.15
2018-06-05T13:31:26.739Z,31.40
2018-06-05T13:33:54.964Z,30.49
2018-06-05T13:36:23.120Z,30.01
2018-06-05T13:38:51.252Z,29.89
2018-06-05T13:41:19.507Z,29.76
2018-06-05T13:43:47.884Z,29.95
2018-06-05T13:46:16.222Z,30.63
2018-06-05T13:48:44.418Z,31.03
2018-06-05T13:51:13.270Z,31.40
2018-06-05T13:53:41.545Z,31.19
2018-06-05T13:56:09.777Z,30.77
2018-06-05T13:58:38.010Z,30.74
2018-06-05T14:01:06.233Z,30.34
2018-06-05T14:03:34.651Z,30.13
2018-06-05T14:06:03.287Z,29.61
2018-06-05T14:08:31.536Z,29.15
2018-06-05T14:11:00.038Z,29.05
2018-06-05T14:13:28.222Z,28.90
2018-06-05T14:15:56.631Z,28.78
2018-06-05T14:18:24.842Z,28.84
2018-06-05T14:20:53.098Z,28.83
2018-06-05T14:23:21.293Z,28.78
2018-06-05T14:25:49.497Z,28.66
2018-06-05T14:28:18.032Z,28.72
2018-06-05T14:30:46.272Z,28.78
2018-06-05T14:33:14.708Z,28.84
2018-06-05T14:35:43.638Z,28.96
2018-06-05T14:38:12.574Z,29.08
2018-06-05T14:40:40.751Z,29.65
2018-06-05T14:43:08.991Z,30.07
2018-06-05T14:45:37.116Z,30.20
2018-06-05T14:48:05.329Z,30.20
2018-06-05T14:50:33.684Z,30.36
2018-06-05T14:53:02.032Z,30.25
2018-06-05T14:55:30.798Z,30.74
2018-06-05T14:57:59.105Z,30.95
2018-06-05T15:00:27.322Z,30.40
2018-06-05T15:02:55.955Z,30.47
2018-06-05T15:05:24.175Z,30.34
2018-06-05T15:07:52.374Z,30.03
2018-06-05T15:10:21.080Z,29.90
2018-06-05T15:12:49.302Z,29.80
2018-06-05T15:15:17.449Z,29.58
2018-06-05T15:17:45.769Z,29.52
2018-06-05T15:20:13.938Z,29.46
2018-06-05T15:22:42.105Z,29.61
2018-06-05T15:25:10.286Z,29.72
2018-06-05T15:27:38.522Z,29.93
2018-06-05T15:30:06.686Z,30.13
2018-06-05T15:32:35.017Z,30.24
2018-06-05T15:35:03.308Z,29.72
2018-06-05T15:37:31.598Z,29.78
2018-06-05T15:40:00.153Z,29.67
2018-06-05T15:42:28.327Z,29.50
2018-06-05T15:44:56.641Z,29.97
2018-06-05T15:47:25.367Z,30.05
2018-06-05T15:49:53.562Z,29.92
2018-06-05T15:52:21.816Z,30.01
2018-06-05T15:54:50.026Z,29.96
2018-06-05T15:57:18.533Z,30.15
2018-06-05T15:59:46.759Z,30.06
2018-06-05T16:02:14.910Z,29.85
2018-06-05T16:04:43.535Z,29.63
2018-06-05T16:07:11.776Z,29.64
2018-06-05T16:09:39.952Z,29.52
2018-06-05T16:12:08.297Z,29.61
2018-06-05T16:14:36.742Z,29.38
2018-06-05T16:17:05.062Z,29.32
2018-06-05T16:19:33.271Z,29.53
2018-06-05T16:22:01.508Z,29.70
2018-06-05T16:24:29.784Z,29.44
2018-06-05T16:26:58.062Z,29.32
2018-06-05T16:29:26.733Z,29.15
2018-06-05T16:31:55.079Z,29.18
2018-06-05T16:34:23.222Z,29.22
2018-06-05T16:36:51.766Z,29.13
2018-06-05T16:39:19.919Z,29.12
2018-06-05T16:41:48.068Z,29.03
2018-06-05T16:44:16.243Z,28.90
2018-06-05T16:46:44.420Z,28.95
2018-06-05T16:49:12.814Z,29.10
2018-06-05T16:51:41.286Z,29.05
2018-06-05T16:54:11.179Z,29.05
2018-06-05T16:56:39.471Z,29.25
2018-06-05T16:59:07.680Z,29.18
2018-06-05T17:01:35.920Z,28.87
2018-06-05T17:04:04.354Z,28.93
2018-06-05T17:06:32.578Z,28.89
2018-06-05T17:09:00.827Z,29.04
2018-06-05T17:11:30.255Z,28.90
2018-06-05T17:13:58.482Z,28.99
2018-06-05T17:16:26.736Z,28.89
2018-06-05T17:18:54.886Z,28.92
2018-06-05T17:21:23.146Z,29.01
2018-06-05T17:23:52.147Z,28.82
2018-06-05T17:26:20.318Z,28.79
2018-06-05T17:28:48.597Z,28.78
2018-06-05T17:31:17.299Z,28.67
2018-06-05T17:33:45.888Z,28.67
2018-06-05T17:36:14.359Z,28.60
2018-06-05T17:38:42.706Z,28.51
2018-06-05T17:41:11.051Z,28.52
2018-06-05T17:43:39.288Z,28.56
2018-06-05T17:46:07.614Z,28.39
2018-06-05T17:48:36.381Z,28.30
2018-06-05T17:51:04.870Z,28.23
2018-06-05T17:53:33.120Z,28.28
2018-06-05T17:56:01.589Z,28.28
2018-06-05T17:58:29.842Z,28.19
2018-06-05T18:00:58.222Z,28.11
2018-06-05T18:03:26.547Z,28.02
2018-06-05T18:05:54.865Z,27.95
2018-06-05T18:08:23.245Z,27.96
2018-06-05T18:10:51.700Z,27.99
2018-06-05T18:13:20.180Z,27.93
2018-06-05T18:15:48.892Z,27.94
2018-06-05T18:18:17.152Z,27.92
2018-06-05T18:20:46.399Z,27.83
2018-06-05T18:23:14.836Z,27.76
2018-06-05T18:25:43.308Z,27.71
2018-06-05T18:28:11.876Z,27.65
2018-06-05T18:30:40.726Z,27.64
2018-06-05T18:33:09.351Z,27.56
2018-06-05T18:35:40.116Z,27.50
2018-06-05T18:38:15.717Z,27.43
2018-06-05T18:40:44.950Z,27.48
2018-06-05T18:43:33.904Z,27.20
2018-06-05T18:46:02.738Z,27.29
2018-06-05T18:57:55.647Z,27.08
2018-06-05T19:00:45.856Z,26.85
2018-06-05T19:03:14.098Z,26.78
2018-06-05T19:05:42.758Z,26.77
2018-06-05T19:08:11.143Z,26.72
2018-06-05T19:10:39.826Z,26.64
2018-06-05T19:13:08.252Z,26.62
2018-06-05T19:15:36.684Z,26.52
2018-06-05T19:18:05.590Z,26.39
2018-06-05T19:20:34.058Z,26.41
2018-06-05T19:23:02.331Z,26.30
2018-06-05T19:25:30.848Z,26.18
2018-06-05T19:27:59.275Z,26.11
2018-06-05T19:30:27.802Z,25.74
2018-06-05T19:32:56.070Z,25.47
2018-06-05T19:35:24.415Z,25.49
2018-06-05T19:37:52.949Z,25.40
2018-06-05T19:40:21.555Z,25.12
2018-06-05T19:42:49.726Z,25.04
2018-06-05T19:45:18.022Z,24.83
2018-06-05T19:47:46.422Z,24.83
2018-06-05T19:50:14.736Z,24.99
2018-06-05T19:52:42.980Z,24.64
2018-06-05T19:55:11.349Z,24.56
2018-06-05T19:57:39.743Z,24.45
2018-06-05T20:00:08.009Z,24.41
2018-06-05T20:02:36.380Z,24.15
2018-06-05T20:05:04.794Z,24.25
2018-06-05T20:07:33.024Z,24.11
2018-06-05T20:10:01.290Z,24.01
2018-06-05T20:12:29.608Z,23.69
2018-06-05T20:14:58.051Z,23.67
2018-06-05T20:17:26.301Z,23.54
2018-06-05T20:19:54.517Z,23.53
2018-06-05T20:22:23.045Z,23.52
2018-06-05T20:24:51.318Z,23.45
2018-06-05T20:27:19.619Z,23.49
2018-06-05T20:29:48.378Z,23.47
2018-06-05T20:32:16.804Z,23.58
2018-06-05T20:34:45.066Z,23.28
2018-06-05T20:37:13.299Z,23.17
2018-06-05T20:39:41.586Z,23.15
2018-06-05T20:42:09.844Z,23.04
2018-06-05T20:44:38.056Z,23.08
2018-06-05T20:47:06.262Z,22.92
2018-06-05T20:49:34.683Z,22.83
2018-06-05T20:52:03.036Z,22.75
2018-06-05T20:54:31.203Z,22.30
2018-06-05T20:56:59.649Z,22.64
2018-06-05T20:59:27.960Z,22.70
2018-06-05T21:01:56.125Z,22.56
2018-06-05T21:04:24.265Z,22.69
2018-06-05T21:06:53.041Z,22.40
2018-06-05T21:09:21.212Z,22.31
2018-06-05T21:11:49.784Z,22.35
2018-06-05T21:14:18.095Z,22.41
2018-06-05T21:16:46.382Z,22.25
2018-06-05T21:19:14.663Z,22.20
2018-06-05T21:24:10.798Z,22.37
2018-06-05T21:26:39.059Z,22.08
2018-06-05T21:29:07.271Z,22.23
2018-06-05T21:31:35.445Z,22.21
2018-06-05T21:34:03.703Z,22.20
2018-06-05T21:36:32.017Z,22.01
2018-06-05T21:39:08.738Z,22.03
2018-06-05T21:41:38.623Z,22.21
2018-06-05T21:44:06.867Z,22.26
2018-06-05T21:46:36.028Z,22.15
2018-06-05T21:49:04.530Z,22.11
2018-06-05T21:51:33.064Z,22.14
2018-06-05T21:54:06.830Z,22.01
2018-06-05T21:56:35.267Z,22.24
2018-06-05T21:59:04.050Z,22.40
2018-06-05T22:01:32.555Z,22.49
2018-06-05T22:04:00.893Z,22.86
2018-06-05T22:06:29.178Z,23.09
2018-06-05T22:09:00.881Z,23.24
2018-06-05T22:11:29.248Z,23.53
2018-06-05T22:13:58.404Z,23.88
2018-06-05T22:16:26.720Z,23.88
2018-06-05T22:18:55.456Z,23.92
2018-06-05T22:21:23.625Z,23.94
2018-06-05T22:23:58.450Z,23.95
2018-06-05T22:26:26.613Z,23.95
2018-06-05T22:28:54.919Z,23.96
2018-06-05T22:31:23.193Z,23.91
2018-06-05T22:33:51.454Z,24.01
2018-06-05T22:36:20.479Z,23.96
2018-06-05T22:38:48.718Z,23.99
2018-06-05T22:41:17.512Z,23.97
2018-06-05T22:43:52.400Z,24.04
2018-06-05T22:46:20.516Z,24.02
2018-06-05T22:48:48.809Z,24.02
2018-06-05T22:51:17.235Z,24.02
2018-06-05T22:53:46.039Z,23.92
2018-06-05T22:56:14.847Z,23.88
2018-06-05T22:58:43.157Z,23.84
2018-06-05T23:01:12.847Z,23.90
2018-06-05T23:03:41.950Z,23.87
2018-06-05T23:06:10.176Z,23.85
2018-06-05T23:08:38.322Z,23.86
2018-06-05T23:11:06.455Z,23.87
2018-06-05T23:13:35.130Z,23.78
2018-06-05T23:16:04.112Z,23.75
2018-06-05T23:18:39.663Z,23.82
2018-06-05T23:21:09.427Z,23.77
2018-06-05T23:23:42.578Z,23.81
2018-06-05T23:26:11.017Z,23.67
2018-06-05T23:28:39.303Z,23.65
2018-06-05T23:31:07.510Z,23.68
2018-06-05T23:33:40.057Z,23.69
2018-06-05T23:36:08.223Z,23.64
2018-06-05T23:38:36.536Z,23.61
2018-06-05T23:41:05.056Z,23.57
2018-06-05T23:43:34.542Z,23.52
2018-06-05T23:46:02.806Z,23.49
2018-06-05T23:48:31.354Z,23.50
2018-06-05T23:50:59.485Z,23.52
2018-06-05T23:53:28.962Z,23.50
2018-06-05T23:55:57.143Z,23.59
2018-06-05T23:58:25.389Z,23.48
